Time;durP1;ratioP1;P1;durP2;ratioP2;P2;SDS_P1;SDS_P2;PMS_P1;PMS_P2;Temp;Humidity;BMP_temperature;BMP_pressure;BME280_temperature;BME280_humidity;BME280_pressure;Samples;Min_cycle;Max_cycle;Signal;HPM_P1;HPM_P2
2022/11/28 00:00:46;;;;;;;94.32;22.67;;;;;;;5.00;100.00;102170.53;1636997;87;21263;-88
2022/11/28 00:03:12;;;;;;;97.47;23.30;;;;;;;5.08;100.00;102172.78;1637249;87;22662;-88
2022/11/28 00:05:37;;;;;;;115.00;24.05;;;;;;;5.05;100.00;102171.30;1637007;87;21234;-88
2022/11/28 00:08:04;;;;;;;93.42;22.75;;;;;;;5.05;100.00;102175.82;1636981;87;21893;-88
2022/11/28 00:10:29;;;;;;;93.87;22.13;;;;;;;4.99;100.00;102172.87;1648992;86;21530;-88
2022/11/28 00:12:55;;;;;;;93.33;23.12;;;;;;;4.96;100.00;102173.75;1664160;86;21058;-88
2022/11/28 00:15:21;;;;;;;103.45;23.10;;;;;;;4.97;100.00;102168.72;1662489;86;21093;-88
2022/11/28 00:17:47;;;;;;;104.50;24.80;;;;;;;4.95;100.00;102178.27;1658999;86;21167;-88
2022/11/28 00:20:13;;;;;;;92.25;21.77;;;;;;;4.98;100.00;102182.42;1708944;80;20978;-88
2022/11/28 00:22:39;;;;;;;88.05;21.35;;;;;;;4.96;100.00;102183.92;1759686;80;20840;-88
2022/11/28 00:25:06;;;;;;;90.32;22.27;;;;;;;5.04;100.00;102184.86;1779160;80;20943;-88
2022/11/28 00:27:34;;;;;;;108.55;22.70;;;;;;;5.08;100.00;102178.95;1783399;80;21105;-89
2022/11/28 00:30:00;;;;;;;95.32;23.30;;;;;;;5.13;100.00;102187.25;1783292;80;20988;-88
2022/11/28 00:32:26;;;;;;;110.40;24.05;;;;;;;5.13;100.00;102180.57;1783245;79;22026;-88
2022/11/28 00:34:53;;;;;;;102.10;22.48;;;;;;;5.16;100.00;102185.55;1783489;80;20861;-88
2022/11/28 00:37:18;;;;;;;99.85;23.18;;;;;;;5.17;100.00;102181.84;1783588;79;21093;-88
2022/11/28 00:39:44;;;;;;;105.22;23.32;;;;;;;5.16;100.00;102183.38;1783631;79;20951;-88
2022/11/28 00:42:10;;;;;;;100.60;24.20;;;;;;;5.16;100.00;102177.53;1783733;80;20892;-88
2022/11/28 00:44:36;;;;;;;112.88;24.55;;;;;;;5.14;100.00;102178.72;1783725;80;21698;-88
2022/11/28 00:47:02;;;;;;;106.72;23.15;;;;;;;5.13;100.00;102175.23;1783552;79;20872;-88
2022/11/28 00:49:28;;;;;;;124.00;25.70;;;;;;;5.10;100.00;102178.78;1783876;80;21054;-88
2022/11/28 00:51:54;;;;;;;121.42;24.20;;;;;;;5.05;100.00;102177.98;1783680;79;21648;-88
2022/11/28 00:54:20;;;;;;;112.05;25.00;;;;;;;5.04;100.00;102183.02;1783685;80;20963;-88
2022/11/28 00:56:46;;;;;;;106.05;25.20;;;;;;;5.08;100.00;102178.13;1783674;80;21858;-88
2022/11/28 00:59:12;;;;;;;110.88;25.35;;;;;;;5.17;100.00;102175.68;1783453;80;20932;-88
2022/11/28 01:01:42;;;;;;;134.27;26.77;;;;;;;5.20;100.00;102182.81;1783624;79;21704;-88
2022/11/28 01:04:12;;;;;;;124.07;26.52;;;;;;;5.15;100.00;102185.23;1783612;80;21483;-88
2022/11/28 01:06:42;;;;;;;104.43;24.32;;;;;;;5.14;100.00;102182.73;1783869;79;21003;-88
2022/11/28 01:09:13;;;;;;;123.75;24.95;;;;;;;5.15;100.00;102181.73;1783330;79;21080;-88
2022/11/28 01:11:41;;;;;;;119.55;25.15;;;;;;;5.17;100.00;102184.52;1783805;79;20932;-88
2022/11/28 01:14:08;;;;;;;135.48;26.42;;;;;;;5.19;100.00;102187.84;1783888;79;21082;-89
2022/11/28 01:16:34;;;;;;;116.03;25.30;;;;;;;5.18;100.00;102186.71;1779713;79;21483;-88
2022/11/28 01:19:00;;;;;;;144.53;27.40;;;;;;;5.12;100.00;102178.09;1777697;80;21118;-88
2022/11/28 01:21:27;;;;;;;156.57;27.40;;;;;;;5.16;100.00;102187.39;1777927;80;21090;-88
2022/11/28 01:23:53;;;;;;;138.10;27.48;;;;;;;5.16;100.00;102187.39;1777856;80;21003;-88
2022/11/28 01:26:24;;;;;;;191.15;30.60;;;;;;;5.15;100.00;102181.73;1777943;80;21083;-88
2022/11/28 01:28:51;;;;;;;173.13;29.90;;;;;;;5.14;100.00;102182.22;1777796;80;21079;-88
2022/11/28 01:31:21;;;;;;;189.82;29.23;;;;;;;5.14;100.00;102184.06;1777557;80;20999;-88
2022/11/28 01:33:47;;;;;;;158.40;28.90;;;;;;;5.12;100.00;102186.94;1778041;80;21133;-88
2022/11/28 01:36:15;;;;;;;149.47;26.75;;;;;;;5.15;100.00;102188.42;1747229;80;20995;-88
2022/11/28 01:38:41;;;;;;;142.22;28.02;;;;;;;5.16;100.00;102189.55;1777956;80;21039;-88
2022/11/28 01:41:08;;;;;;;141.03;25.88;;;;;;;5.16;100.00;102189.55;1778170;80;21499;-88
2022/11/28 01:43:35;;;;;;;129.20;26.82;;;;;;;5.17;100.00;102190.38;1778133;80;20984;-89
2022/11/28 01:46:03;;;;;;;148.50;25.68;;;;;;;5.18;100.00;102191.55;1777366;80;21158;-89
2022/11/28 01:48:39;;;;;;;165.73;26.50;;;;;;;5.21;100.00;102194.36;1777714;80;21066;-88
2022/11/28 01:51:08;;;;;;;164.28;28.57;;;;;;;5.20;100.00;102194.02;1774493;80;21124;-88
2022/11/28 01:53:39;;;;;;;124.35;25.70;;;;;;;5.20;100.00;102188.16;1777758;80;21523;-88
2022/11/28 01:56:16;;;;;;;119.35;24.98;;;;;;;5.17;100.00;102189.04;1777867;80;21006;-89
2022/11/28 01:58:46;;;;;;;108.32;24.90;;;;;;;5.20;100.00;102192.68;1778213;80;21735;-88
2022/11/28 02:01:12;;;;;;;122.13;24.47;;;;;;;5.21;100.00;102194.36;1777928;80;21484;-88
2022/11/28 02:03:45;;;;;;;102.07;23.80;;;;;;;5.21;100.00;102202.38;1777845;80;21165;-88
2022/11/28 02:06:16;;;;;;;104.85;24.27;;;;;;;5.24;100.00;102202.83;1778135;80;21028;-89
2022/11/28 02:08:42;;;;;;;107.43;24.40;;;;;;;5.28;100.00;102203.80;1747228;80;21086;-88
2022/11/28 02:11:58;;;;;;;99.67;23.92;;;;;;;5.29;100.00;102205.45;1777883;80;22561;-89
2022/11/28 02:14:41;;;;;;;97.10;21.68;;;;;;;5.30;100.00;102201.27;1776828;80;20988;-89
2022/11/28 02:17:28;;;;;;;94.22;22.27;;;;;;;5.32;100.00;102199.73;1781944;79;21018;-88
2022/11/28 02:20:14;;;;;;;96.60;21.85;;;;;;;5.30;100.00;102201.78;1785964;80;21546;-88
2022/11/28 02:22:51;;;;;;;89.07;21.50;;;;;;;5.33;100.00;102206.23;1788201;80;21058;-89
2022/11/28 02:25:35;;;;;;;88.95;21.30;;;;;;;5.38;100.00;102207.86;1790065;80;22089;-88
2022/11/28 02:28:37;;;;;;;85.55;20.65;;;;;;;5.38;100.00;102202.52;1786770;80;21051;-88
2022/11/28 02:31:48;;;;;;;81.47;19.32;;;;;;;5.38;100.00;102201.66;1724156;82;21180;-88
2022/11/28 02:34:28;;;;;;;84.97;20.45;;;;;;;5.35;100.00;102201.52;1724069;83;21069;-88
2022/11/28 02:37:06;;;;;;;89.15;20.48;;;;;;;5.35;100.00;102202.85;1721153;83;20995;-88
2022/11/28 02:40:16;;;;;;;79.32;19.87;;;;;;;5.32;100.00;102201.89;1637654;86;21118;-88
2022/11/28 02:43:06;;;;;;;72.78;18.62;;;;;;;5.37;100.00;102197.34;1639475;86;21035;-88
2022/11/28 02:45:49;;;;;;;76.65;19.23;;;;;;;5.37;100.00;102202.17;1613702;88;21051;-89
2022/11/28 02:48:43;;;;;;;56.70;16.75;;;;;;;5.38;100.00;102204.33;1655305;86;21070;-88
2022/11/28 02:51:37;;;;;;;58.48;16.12;;;;;;;5.37;100.00;102196.82;1631802;87;21090;-89
2022/11/28 02:54:08;;;;;;;39.40;12.35;;;;;;;5.37;100.00;102199.50;1630195;87;21589;-88
2022/11/28 02:56:34;;;;;;;39.00;10.75;;;;;;;5.37;100.00;102202.17;1631860;87;21065;-88
2022/11/28 02:59:00;;;;;;;28.40;9.30;;;;;;;5.39;100.00;102202.83;1631831;87;21644;-89
2022/11/28 03:01:33;;;;;;;28.35;8.10;;;;;;;5.40;100.00;102207.14;1632001;87;21030;-88
2022/11/28 03:04:12;;;;;;;;;;;;;;;5.41;100.00;102204.81;1634282;87;21029;-88
2022/11/28 03:07:00;;;;;;;18.70;6.00;;;;;;;5.41;100.00;102211.50;1631766;87;21216;-88
2022/11/28 03:09:51;;;;;;;23.77;6.85;;;;;;;5.42;100.00;102209.64;1631446;87;21142;-89
2022/11/28 03:12:32;;;;;;;19.37;7.00;;;;;;;5.42;100.00;102205.64;1600488;89;21142;-89
2022/11/28 03:15:02;;;;;;;23.00;7.40;;;;;;;5.40;100.00;102207.14;1600646;89;21516;-88
2022/11/28 03:17:53;;;;;;;22.35;7.60;;;;;;;5.41;100.00;102203.95;1599973;87;21104;-88
2022/11/28 03:20:47;;;;;;;24.23;7.45;;;;;;;5.40;100.00;102211.16;1600156;89;21114;-88
2022/11/28 03:23:36;;;;;;;26.42;8.83;;;;;;;5.40;100.00;102212.49;1600377;89;21055;-89
2022/11/28 03:26:14;;;;;;;35.73;11.28;;;;;;;5.41;100.00;102207.97;1533828;92;21084;-88
2022/11/28 03:28:48;;;;;;;35.55;12.28;;;;;;;5.41;100.00;102210.16;1548083;92;21128;-88
2022/11/28 03:31:25;;;;;;;34.23;11.70;;;;;;;5.37;100.00;102216.05;1530735;93;21081;-88
2022/11/28 03:33:54;;;;;;;34.88;11.43;;;;;;;5.34;100.00;102212.41;1530770;93;21263;-88
2022/11/28 03:36:28;;;;;;;33.92;12.00;;;;;;;5.34;100.00;102212.41;1550274;91;21124;-88
2022/11/28 03:38:59;;;;;;;31.65;11.53;;;;;;;5.35;100.00;102210.88;1576498;89;21029;-88
2022/11/28 03:41:41;;;;;;;33.45;12.00;;;;;;;5.36;100.00;102215.73;1576683;91;21088;-88
2022/11/28 03:44:12;;;;;;;32.55;11.85;;;;;;;5.36;100.00;102222.42;1550782;92;21675;-89
2022/11/28 03:46:45;;;;;;;32.40;11.63;;;;;;;5.35;100.00;102218.06;1551497;92;22245;-89
2022/11/28 03:49:15;;;;;;;33.00;13.00;;;;;;;5.36;100.00;102226.43;1527939;93;21071;-88
2022/11/28 03:51:52;;;;;;;37.10;13.10;;;;;;;5.36;100.00;102223.76;1516307;94;21098;-88
2022/11/28 03:54:38;;;;;;;34.08;12.55;;;;;;;5.33;100.00;102216.93;1514600;94;21648;-88
2022/11/28 03:57:40;;;;;;;36.75;13.38;;;;;;;5.31;100.00;102217.61;1512068;94;21663;-89
2022/11/28 04:00:10;;;;;;;49.23;16.00;;;;;;;5.35;100.00;102225.58;1516541;93;22025;-90
2022/11/28 04:03:10;;;;;;;47.98;14.90;;;;;;;5.35;100.00;102232.77;1546973;90;21624;-88
2022/11/28 04:06:05;;;;;;;41.50;14.80;;;;;;;5.27;100.00;102234.22;1584540;90;21060;-89
2022/11/28 04:08:45;;;;;;;40.52;15.08;;;;;;;5.23;100.00;102239.94;1538464;93;21109;-89
2022/11/28 04:11:19;;;;;;;42.60;15.65;;;;;;;5.19;100.00;102241.30;1539922;91;21115;-89
2022/11/28 04:14:02;;;;;;;41.48;15.13;;;;;;;5.17;100.00;102245.16;1514020;94;22003;-89
2022/11/28 04:16:43;;;;;;;40.98;14.38;;;;;;;5.16;100.00;102244.84;1513883;93;21088;-89
2022/11/28 04:19:30;;;;;;;40.28;14.13;;;;;;;5.14;100.00;102246.35;1524901;92;21168;-89
2022/11/28 04:22:16;;;;;;;36.83;14.13;;;;;;;5.11;100.00;102246.72;1551992;92;21599;-88
2022/11/28 04:24:47;;;;;;;36.30;13.75;;;;;;;5.09;100.00;102253.25;1551893;92;21123;-88
2022/11/28 04:27:19;;;;;;;37.35;14.40;;;;;;;5.06;100.00;102252.28;1505190;95;21097;-88
2022/11/28 04:29:53;;;;;;;35.35;14.05;;;;;;;5.05;100.00;102259.48;1483166;96;21104;-88
2022/11/28 04:32:21;;;;;;;34.73;14.75;;;;;;;5.06;100.00;102257.63;1483210;95;21134;-88
2022/11/28 04:34:53;;;;;;;36.00;14.30;;;;;;;5.06;100.00;102257.63;1481381;96;21155;-89
2022/11/28 04:37:21;;;;;;;37.55;13.98;;;;;;;5.04;100.00;102261.83;1416889;99;21166;-88
2022/11/28 04:42:25;;;;;;;45.52;17.30;;;;;;;5.08;100.00;102262.30;1391427;101;21102;-88
2022/11/28 04:45:34;;;;;;;50.92;17.80;;;;;;;5.11;100.00;102268.61;1380887;103;21144;-89
2022/11/28 04:48:01;;;;;;;54.93;18.15;;;;;;;5.09;100.00;102271.95;1365160;104;21692;-89
2022/11/28 04:50:32;;;;;;;64.42;21.25;;;;;;;5.06;100.00;102270.98;1383546;102;21145;-89
2022/11/28 04:53:13;;;;;;;65.15;20.12;;;;;;;5.06;100.00;102266.98;1350543;106;21227;-89
2022/11/28 04:55:54;;;;;;;75.40;21.50;;;;;;;5.04;100.00;102273.03;1343643;105;21191;-88
2022/11/28 04:58:30;;;;;;;79.80;22.20;;;;;;;5.01;100.00;102269.70;1345895;105;21183;-88
2022/11/28 05:00:57;;;;;;;86.65;22.77;;;;;;;5.01;100.00;102275.05;1345494;105;21143;-88
2022/11/28 05:03:27;;;;;;;81.15;22.13;;;;;;;4.97;100.00;102279.10;1348513;103;21898;-88
2022/11/28 05:05:53;;;;;;;75.85;20.68;;;;;;;5.01;100.00;102283.57;1366006;103;21182;-89
2022/11/28 05:08:20;;;;;;;73.57;20.55;;;;;;;5.00;100.00;102286.75;1366060;105;21146;-89
2022/11/28 05:10:46;;;;;;;77.55;22.05;;;;;;;4.98;100.00;102282.59;1366031;103;21586;-88
2022/11/28 05:13:12;;;;;;;82.88;21.55;;;;;;;4.99;100.00;102289.08;1365886;105;21153;-88
2022/11/28 05:15:38;;;;;;;83.60;22.07;;;;;;;4.96;100.00;102287.28;1366227;103;21283;-88
2022/11/28 05:18:05;;;;;;;78.47;22.85;;;;;;;4.93;100.00;102284.97;1362678;104;21823;-89
2022/11/28 05:20:33;;;;;;;80.20;23.15;;;;;;;4.92;100.00;102285.99;1358138;105;21703;-87
2022/11/28 05:22:58;;;;;;;78.00;22.00;;;;;;;4.91;100.00;102286.98;1358111;104;21148;-89
2022/11/28 05:25:25;;;;;;;84.97;22.70;;;;;;;4.90;100.00;102288.83;1358361;104;21707;-88
2022/11/28 05:27:51;;;;;;;79.25;20.43;;;;;;;4.89;100.00;102289.03;1358430;105;21165;-89
2022/11/28 05:30:17;;;;;;;73.72;19.95;;;;;;;4.90;100.00;102289.34;1365622;100;21108;-89
2022/11/28 05:32:43;;;;;;;60.17;18.95;;;;;;;4.87;100.00;102297.72;1442844;97;21172;-88
2022/11/28 05:35:09;;;;;;;72.67;19.52;;;;;;;4.83;100.00;102301.26;1530142;93;21076;-88
2022/11/28 05:37:35;;;;;;;77.97;20.88;;;;;;;4.80;100.00;102302.13;1541564;93;21116;-89
2022/11/28 05:40:02;;;;;;;73.15;20.65;;;;;;;4.73;100.00;102304.66;1580957;88;21602;-89
2022/11/28 05:42:33;;;;;;;54.67;18.62;;;;;;;4.72;100.00;102304.34;1660155;85;21083;-89
2022/11/28 05:44:59;;;;;;;74.42;19.98;;;;;;;4.69;100.00;102304.70;1684077;82;21093;-88
2022/11/28 05:47:25;;;;;;;68.85;19.12;;;;;;;4.67;100.00;102305.38;1739783;81;21061;-89
2022/11/28 05:49:51;;;;;;;73.52;20.23;;;;;;;4.68;100.00;102305.21;1721013;82;20974;-88
2022/11/28 05:52:17;;;;;;;74.25;21.17;;;;;;;4.71;100.00;102310.20;1733385;82;20888;-88
2022/11/28 05:54:43;;;;;;;67.67;18.65;;;;;;;4.67;100.00;102312.05;1717209;82;21874;-88
2022/11/28 05:57:09;;;;;;;62.48;17.73;;;;;;;4.67;100.00;102316.88;1710212;83;20876;-89
2022/11/28 05:59:35;;;;;;;61.75;18.20;;;;;;;4.68;100.00;102317.73;1710315;83;21719;-87
2022/11/28 06:02:01;;;;;;;58.68;18.62;;;;;;;4.65;100.00;102313.58;1710103;83;21026;-88
2022/11/28 06:04:27;;;;;;;64.80;19.23;;;;;;;4.62;100.00;102311.74;1710409;83;21663;-89
2022/11/28 06:06:53;;;;;;;63.45;19.87;;;;;;;4.63;100.00;102312.09;1707346;83;21072;-88
2022/11/28 06:09:19;;;;;;;68.52;20.55;;;;;;;4.62;100.00;102319.28;1710444;83;20919;-88
2022/11/28 06:11:45;;;;;;;87.57;24.25;;;;;;;4.64;100.00;102318.58;1710314;83;21494;-88
2022/11/28 06:14:11;;;;;;;82.47;23.18;;;;;;;4.64;100.00;102327.09;1691951;83;20867;-88
2022/11/28 06:16:37;;;;;;;73.45;22.48;;;;;;;4.64;100.00;102328.43;1710582;81;20939;-89
2022/11/28 06:19:05;;;;;;;59.58;19.07;;;;;;;4.62;100.00;102325.95;1735285;82;21660;-89
2022/11/28 06:21:31;;;;;;;80.28;22.15;;;;;;;4.64;100.00;102331.09;1747200;80;21433;-89
2022/11/28 06:23:59;;;;;;;73.28;21.73;;;;;;;4.66;100.00;102337.10;1757785;80;21001;-89
2022/11/28 06:26:27;;;;;;;64.58;20.08;;;;;;;4.65;100.00;102335.45;1770207;80;20967;-89
2022/11/28 06:28:57;;;;;;;81.02;22.93;;;;;;;4.65;100.00;102343.46;1707441;82;21356;-89
2022/11/28 06:31:27;;;;;;;80.32;21.68;;;;;;;4.65;100.00;102339.45;1706875;82;21078;-89
2022/11/28 06:33:53;;;;;;;84.13;23.12;;;;;;;4.64;100.00;102336.44;1697610;81;21090;-89
2022/11/28 06:36:20;;;;;;;95.92;26.82;;;;;;;4.65;100.00;102343.46;1687366;83;21549;-89
2022/11/28 06:38:46;;;;;;;113.15;29.70;;;;;;;4.65;100.00;102338.13;1654962;83;21149;-89
2022/11/28 06:41:16;;;;;;;116.00;29.23;;;;;;;4.67;100.00;102341.42;1704537;81;21101;-89
2022/11/28 06:43:43;;;;;;;114.03;28.38;;;;;;;4.61;100.00;102340.80;1709413;81;22012;-89
2022/11/28 06:46:15;;;;;;;108.17;29.50;;;;;;;4.61;100.00;102347.47;1702950;82;21105;-89
2022/11/28 06:48:42;;;;;;;107.97;29.30;;;;;;;4.61;100.00;102342.13;1692727;82;21071;-89
2022/11/28 06:51:08;;;;;;;105.07;27.80;;;;;;;4.62;100.00;102343.78;1690450;82;21145;-89
2022/11/28 06:53:35;;;;;;;107.03;27.35;;;;;;;4.60;100.00;102338.64;1687637;83;21052;-88
2022/11/28 06:56:07;;;;;;;99.10;27.27;;;;;;;4.61;100.00;102346.14;1683678;83;21318;-88
2022/11/28 06:58:34;;;;;;;95.72;26.77;;;;;;;4.60;100.00;102348.49;1619451;87;21105;-88
2022/11/28 07:01:12;;;;;;;94.03;26.30;;;;;;;4.60;100.00;102353.83;1620907;87;21058;-89
2022/11/28 07:03:39;;;;;;;113.05;27.82;;;;;;;4.61;100.00;102351.48;1609875;87;21082;-89
2022/11/28 07:06:06;;;;;;;103.90;27.77;;;;;;;4.60;100.00;102349.31;1620363;87;21132;-89
2022/11/28 07:08:32;;;;;;;91.95;25.45;;;;;;;4.55;100.00;102356.51;1618930;87;21284;-89
2022/11/28 07:11:10;;;;;;;80.15;23.40;;;;;;;4.57;100.00;102352.34;1615827;88;21225;-89
2022/11/28 07:13:37;;;;;;;85.62;24.30;;;;;;;4.57;100.00;102347.52;1613324;87;21062;-89
2022/11/28 07:16:03;;;;;;;82.78;23.62;;;;;;;4.62;100.00;102351.80;1617720;87;21080;-90
2022/11/28 07:18:30;;;;;;;90.57;25.27;;;;;;;4.63;100.00;102362.82;1618994;86;21578;-89
2022/11/28 07:20:56;;;;;;;105.50;28.60;;;;;;;4.62;100.00;102354.47;1618883;87;21303;-89
2022/11/28 07:23:22;;;;;;;103.32;28.67;;;;;;;4.64;100.00;102352.45;1619992;87;21096;-90
2022/11/28 07:25:50;;;;;;;99.50;28.15;;;;;;;4.59;100.00;102365.02;1618774;87;22377;-90
2022/11/28 07:28:16;;;;;;;95.30;28.10;;;;;;;4.58;100.00;102356.66;1610604;87;21060;-90
2022/11/28 07:30:42;;;;;;;93.55;27.82;;;;;;;4.60;100.00;102373.34;1611061;87;21203;-89
2022/11/28 07:33:08;;;;;;;100.72;27.95;;;;;;;4.58;100.00;102369.19;1614087;88;21164;-89
2022/11/28 07:35:35;;;;;;;94.07;26.80;;;;;;;4.53;100.00;102367.89;1614730;88;21589;-89
2022/11/28 07:38:01;;;;;;;103.00;29.75;;;;;;;4.50;100.00;102368.23;1619251;87;21102;-90
2022/11/28 07:40:27;;;;;;;110.00;27.15;;;;;;;4.36;100.00;102354.30;1611033;87;21136;-89
2022/11/28 07:42:54;;;;;;;109.22;28.65;;;;;;;4.36;100.00;102354.30;1616361;86;21378;-90
2022/11/28 07:45:20;;;;;;;131.70;32.50;;;;;;;4.53;100.00;102370.56;1621741;86;21753;-90
2022/11/28 07:47:46;;;;;;;130.57;33.50;;;;;;;4.51;100.00;102375.73;1619143;86;21080;-90
2022/11/28 07:50:12;;;;;;;133.72;32.23;;;;;;;4.48;100.00;102375.58;1611496;86;21045;-90
2022/11/28 07:52:38;;;;;;;141.88;32.65;;;;;;;4.44;100.00;102377.43;1615463;86;21735;-90
2022/11/28 07:55:05;;;;;;;127.58;34.05;;;;;;;4.43;100.00;102373.94;1656752;82;21715;-90
2022/11/28 07:57:33;;;;;;;130.60;32.75;;;;;;;4.36;100.00;102387.66;1734449;82;21764;-90
2022/11/28 07:59:59;;;;;;;145.30;32.90;;;;;;;4.33;100.00;102381.34;1737761;82;21005;-90
2022/11/28 08:02:26;;;;;;;137.45;32.33;;;;;;;4.32;100.00;102385.85;1738274;81;21082;-90
2022/11/28 08:04:53;;;;;;;140.35;34.20;;;;;;;4.30;100.00;102389.70;1728698;82;21190;-90
2022/11/28 08:07:19;;;;;;;150.97;34.13;;;;;;;4.33;100.00;102385.34;1737924;82;21095;-90
2022/11/28 08:09:45;;;;;;;125.33;32.17;;;;;;;4.29;100.00;102387.53;1738994;82;21225;-90
2022/11/28 08:12:11;;;;;;;139.28;33.00;;;;;;;4.28;100.00;102385.85;1739410;81;21170;-91
2022/11/28 08:14:37;;;;;;;123.60;32.67;;;;;;;4.27;100.00;102386.87;1737273;81;21030;-89
2022/11/28 08:17:04;;;;;;;120.05;31.77;;;;;;;4.29;100.00;102384.01;1736244;81;21105;-88
2022/11/28 08:19:30;;;;;;;119.75;30.75;;;;;;;4.33;100.00;102381.34;1772075;78;21016;-88
2022/11/28 08:21:56;;;;;;;122.90;32.65;;;;;;;4.32;100.00;102379.18;1794028;80;22016;-89
2022/11/28 08:24:23;;;;;;;120.55;30.88;;;;;;;4.44;100.00;102388.97;1789816;80;21032;-88
2022/11/28 08:26:49;;;;;;;108.83;30.17;;;;;;;4.40;100.00;102379.63;1789404;78;21031;-89
2022/11/28 08:29:15;;;;;;;115.60;31.12;;;;;;;4.42;100.00;102382.96;1759180;80;21082;-89
2022/11/28 08:31:42;;;;;;;115.28;31.30;;;;;;;4.46;100.00;102383.44;1790429;80;21461;-90
2022/11/28 08:34:11;;;;;;;112.20;30.50;;;;;;;4.37;100.00;102391.98;1791282;80;21577;-88
2022/11/28 08:36:37;;;;;;;102.87;30.05;;;;;;;4.44;100.00;102377.43;1791796;78;21016;-88
2022/11/28 08:39:04;;;;;;;106.95;30.92;;;;;;;4.46;100.00;102380.77;1787921;78;21049;-88
2022/11/28 08:41:31;;;;;;;113.17;29.27;;;;;;;4.43;100.00;102383.78;1790173;78;21572;-89
2022/11/28 08:43:57;;;;;;;103.95;30.12;;;;;;;4.46;100.00;102379.43;1785810;78;21076;-89
2022/11/28 08:46:24;;;;;;;98.33;28.40;;;;;;;4.44;100.00;102379.63;1729987;81;21071;-89
2022/11/28 08:48:51;;;;;;;94.07;28.75;;;;;;;4.40;100.00;102378.80;1725814;81;21105;-89
2022/11/28 08:51:22;;;;;;;102.80;27.35;;;;;;;4.45;100.00;102374.60;1727192;81;21064;-88
2022/11/28 08:53:49;;;;;;;92.12;28.00;;;;;;;4.43;100.00;102377.11;1724606;81;21038;-87
2022/11/28 08:56:15;;;;;;;98.10;27.82;;;;;;;4.48;100.00;102372.91;1731059;81;21128;-89
2022/11/28 08:58:42;;;;;;;102.78;28.65;;;;;;;4.53;100.00;102373.23;1697278;81;21244;-88
2022/11/28 09:01:21;;;;;;;107.78;27.90;;;;;;;4.50;100.00;102374.06;1720211;83;21686;-89
2022/11/28 09:03:48;;;;;;;103.07;28.00;;;;;;;4.46;100.00;102368.75;1727520;81;21101;-88
2022/11/28 09:06:16;;;;;;;105.20;29.20;;;;;;;4.54;100.00;102368.72;1732432;81;21755;-90
2022/11/28 09:08:44;;;;;;;89.25;25.82;;;;;;;4.51;100.00;102373.07;1733017;81;21105;-90
2022/11/28 09:11:14;;;;;;;84.77;26.12;;;;;;;4.50;100.00;102376.73;1767418;78;21834;-87
2022/11/28 09:13:41;;;;;;;85.77;24.80;;;;;;;4.45;100.00;102375.11;1794789;78;20925;-89
2022/11/28 09:16:09;;;;;;;87.17;25.32;;;;;;;4.46;100.00;102375.42;1791606;78;21129;-89
2022/11/28 09:18:36;;;;;;;84.92;24.63;;;;;;;4.49;100.00;102374.56;1775044;79;21561;-88
2022/11/28 09:23:36;;;;;;;89.10;25.40;;;;;;;4.50;100.00;102370.05;1651157;85;21585;-88
2022/11/28 09:26:14;;;;;;;93.58;27.55;;;;;;;4.47;100.00;102365.92;1652064;86;21708;-89
2022/11/28 09:28:40;;;;;;;94.80;27.25;;;;;;;4.48;100.00;102354.73;1569237;90;21089;-89
2022/11/28 09:31:07;;;;;;;80.67;25.02;;;;;;;4.45;100.00;102363.09;1569813;90;21644;-88
2022/11/28 09:33:35;;;;;;;96.67;27.90;;;;;;;4.39;100.00;102367.80;1569516;89;21151;-88
2022/11/28 09:36:08;;;;;;;99.50;29.20;;;;;;;4.45;100.00;102369.77;1569741;90;21284;-88
2022/11/28 09:38:35;;;;;;;89.72;26.65;;;;;;;4.45;100.00;102369.27;1537844;92;21175;-89
2022/11/28 09:41:03;;;;;;;90.67;27.85;;;;;;;4.41;100.00;102367.10;1537472;91;21164;-88
2022/11/28 09:43:37;;;;;;;102.32;28.52;;;;;;;4.42;100.00;102368.28;1550474;90;21204;-88
2022/11/28 09:46:07;;;;;;;102.15;29.80;;;;;;;4.39;100.00;102373.14;1537785;92;21135;-88
2022/11/28 09:48:40;;;;;;;104.65;28.85;;;;;;;4.37;100.00;102363.95;1537785;91;21228;-87
2022/11/28 09:51:38;;;;;;;90.77;27.07;;;;;;;4.38;100.00;102366.95;1555515;90;21752;-88
2022/11/28 09:54:18;;;;;;;86.82;26.07;;;;;;;4.39;100.00;102359.28;1561467;90;21165;-88
2022/11/28 09:56:48;;;;;;;86.12;25.17;;;;;;;4.40;100.00;102352.94;1554704;90;21178;-89
2022/11/28 09:59:24;;;;;;;83.47;26.02;;;;;;;4.44;100.00;102357.41;1538566;91;21158;-88
2022/11/28 10:02:26;;;;;;;80.85;24.70;;;;;;;4.45;100.00;102366.59;1556210;90;21163;-88
2022/11/28 10:05:03;;;;;;;79.35;24.12;;;;;;;4.40;100.00;102360.94;1545719;91;22920;-88
2022/11/28 10:08:00;;;;;;;78.05;24.72;;;;;;;4.38;100.00;102360.78;1544806;91;21202;-88
2022/11/28 10:10:44;;;;;;;80.47;23.95;;;;;;;4.41;100.00;102367.10;1542878;91;21159;-88
2022/11/28 10:13:19;;;;;;;74.05;22.55;;;;;;;4.45;100.00;102361.77;1508035;93;21128;-88
2022/11/28 10:16:00;;;;;;;73.12;22.55;;;;;;;4.47;100.00;102361.92;1465928;96;21159;-88
2022/11/28 10:18:34;;;;;;;82.72;24.85;;;;;;;4.49;100.00;102365.22;1458274;96;21093;-88
2022/11/28 10:21:06;;;;;;;67.90;21.60;;;;;;;4.50;100.00;102361.56;1494688;93;21131;-89
2022/11/28 10:23:39;;;;;;;59.00;20.30;;;;;;;4.45;100.00;102359.92;1495058;94;21158;-88
2022/11/28 10:26:28;;;;;;;57.55;18.92;;;;;;;4.39;100.00;102357.95;1477782;93;21141;-88
2022/11/28 10:28:57;;;;;;;73.65;22.30;;;;;;;4.33;100.00;102355.48;1539435;92;21141;-88
2022/11/28 10:31:38;;;;;;;85.70;26.37;;;;;;;4.38;100.00;102358.94;1536564;92;21080;-89
2022/11/28 10:34:38;;;;;;;82.75;25.10;;;;;;;4.44;100.00;102356.08;1543456;92;21133;-89
2022/11/28 10:37:26;;;;;;;75.37;23.95;;;;;;;4.44;100.00;102355.59;1541712;91;21066;-88
2022/11/28 10:39:55;;;;;;;68.65;22.73;;;;;;;4.39;100.00;102355.28;1575995;90;21067;-89
2022/11/28 10:42:38;;;;;;;73.70;23.02;;;;;;;4.40;100.00;102350.27;1583653;90;21189;-89
2022/11/28 10:45:50;;;;;;;59.73;20.75;;;;;;;4.37;100.00;102349.79;1576298;90;21103;-88
2022/11/28 10:48:33;;;;;;;69.55;22.37;;;;;;;4.34;100.00;102348.30;1573846;90;21613;-89
2022/11/28 10:51:32;;;;;;;63.90;21.25;;;;;;;4.39;100.00;102347.28;1599442;87;21541;-90
2022/11/28 10:54:24;;;;;;;63.48;20.72;;;;;;;4.36;100.00;102352.97;1619864;87;21174;-91
2022/11/28 10:57:01;;;;;;;69.15;20.50;;;;;;;4.31;100.00;102348.65;1616971;87;21131;-89
2022/11/28 10:59:42;;;;;;;78.87;24.10;;;;;;;4.27;100.00;102345.50;1622713;87;21119;-90
2022/11/28 11:02:28;;;;;;;90.03;24.75;;;;;;;4.23;100.00;102342.84;1625730;87;21144;-91
2022/11/28 11:04:54;;;;;;;76.72;23.20;;;;;;;4.19;100.00;102346.05;1720634;81;21032;-90
2022/11/28 11:07:27;;;;;;;78.15;24.15;;;;;;;4.21;100.00;102344.87;1730693;81;21027;-89
2022/11/28 11:09:53;;;;;;;;;;;;;;;4.13;100.00;102346.75;1734743;81;21087;-89
2022/11/28 11:12:30;;;;;;;78.97;23.75;;;;;;;4.00;100.00;102328.61;1755661;78;20231;-89
2022/11/28 11:14:56;;;;;;;83.82;24.50;;;;;;;4.00;100.00;102328.61;1808079;77;21368;-90
2022/11/28 11:17:32;;;;;;;69.55;23.15;;;;;;;4.02;100.00;102350.10;1821866;77;20988;-90
2022/11/28 11:19:59;;;;;;;70.97;21.45;;;;;;;4.10;100.00;102359.41;1825278;78;20979;-90
2022/11/28 11:22:30;;;;;;;67.92;22.70;;;;;;;3.99;100.00;102351.78;1831746;77;21136;-90
2022/11/28 11:25:15;;;;;;;67.72;21.05;;;;;;;3.98;100.00;102346.64;1831193;77;21058;-89
2022/11/28 11:27:55;;;;;;;71.60;22.37;;;;;;;3.92;100.00;102354.00;1831254;77;21439;-90
2022/11/28 11:30:41;;;;;;;73.83;22.35;;;;;;;3.91;100.00;102356.31;1781565;79;20998;-90
2022/11/28 11:33:16;;;;;;;67.05;20.50;;;;;;;3.89;100.00;102359.17;1750629;81;21140;-90
2022/11/28 11:35:46;;;;;;;68.05;20.92;;;;;;;3.91;100.00;102362.98;1777546;80;21562;-90